sensor_id;sensor_type;location;lat;lon;timestamp;P1;durP1;ratioP1;P2;durP2;ratioP2
80910;SDS011;70359;51.420;7.032;2023-06-19T00:02:05;2.5;;;1.9;;
80910;SDS011;70359;51.420;7.032;2023-06-19T00:04:30;2.1;;;1.9;;
80910;SDS011;70359;51.420;7.032;2023-06-19T00:06:59;2.1;;;1.9;;
80910;SDS011;70359;51.420;7.032;2023-06-19T00:09:20;1.7;;;1.6;;
80910;SDS011;70359;51.420;7.032;2023-06-19T00:11:49;1.7;;;1.6;;
80910;SDS011;70359;51.420;7.032;2023-06-19T00:14:10;1.6;;;1.5;;
80910;SDS011;70359;51.420;7.032;2023-06-19T00:16:39;1.6;;;1.5;;
80910;SDS011;70359;51.420;7.032;2023-06-19T00:19:00;2.9;;;2.2;;
80910;SDS011;70359;51.420;7.032;2023-06-19T00:21:25;2.9;;;2.2;;
80910;SDS011;70359;51.420;7.032;2023-06-19T00:23:50;2.9;;;2.2;;
80910;SDS011;70359;51.420;7.032;2023-06-19T00:26:20;1.7;;;1.6;;
80910;SDS011;70359;51.420;7.032;2023-06-19T00:28:44;1.7;;;1.6;;
80910;SDS011;70359;51.420;7.032;2023-06-19T00:31:05;1.4;;;1.3;;
80910;SDS011;70359;51.420;7.032;2023-06-19T00:35:59;2.1;;;1.9;;
80910;SDS011;70359;51.420;7.032;2023-06-19T00:38:24;2.1;;;1.9;;
80910;SDS011;70359;51.420;7.032;2023-06-19T00:40:49;1.9;;;1.7;;
80910;SDS011;70359;51.420;7.032;2023-06-19T00:43:10;1.9;;;1.7;;
80910;SDS011;70359;51.420;7.032;2023-06-19T00:45:35;2.1;;;1.9;;
80910;SDS011;70359;51.420;7.032;2023-06-19T00:48:00;2.1;;;1.9;;
80910;SDS011;70359;51.420;7.032;2023-06-19T00:50:29;1.6;;;1.5;;
80910;SDS011;70359;51.420;7.032;2023-06-19T00:52:50;1.6;;;1.5;;
80910;SDS011;70359;51.420;7.032;2023-06-19T00:55:16;1.7;;;1.6;;
80910;SDS011;70359;51.420;7.032;2023-06-19T00:57:40;1.7;;;1.6;;
80910;SDS011;70359;51.420;7.032;2023-06-19T01:00:11;1.6;;;1.5;;
80910;SDS011;70359;51.420;7.032;2023-06-19T01:02:30;1.6;;;1.5;;
80910;SDS011;70359;51.420;7.032;2023-06-19T01:04:56;2.9;;;1.9;;
80910;SDS011;70359;51.420;7.032;2023-06-19T01:07:23;2.9;;;1.9;;
80910;SDS011;70359;51.420;7.032;2023-06-19T01:09:48;1.7;;;1.6;;
80910;SDS011;70359;51.420;7.032;2023-06-19T01:12:15;1.7;;;1.6;;
80910;SDS011;70359;51.420;7.032;2023-06-19T01:14:40;2.4;;;2.2;;
80910;SDS011;70359;51.420;7.032;2023-06-19T01:17:00;2.4;;;2.2;;
80910;SDS011;70359;51.420;7.032;2023-06-19T01:19:25;1.5;;;1.4;;
80910;SDS011;70359;51.420;7.032;2023-06-19T01:21:54;1.5;;;1.4;;
80910;SDS011;70359;51.420;7.032;2023-06-19T01:24:15;1.7;;;1.6;;
80910;SDS011;70359;51.420;7.032;2023-06-19T01:26:41;1.7;;;1.6;;
80910;SDS011;70359;51.420;7.032;2023-06-19T01:29:08;2.5;;;2.3;;
80910;SDS011;70359;51.420;7.032;2023-06-19T01:31:33;2.5;;;2.3;;
80910;SDS011;70359;51.420;7.032;2023-06-19T01:33:55;2.5;;;2.3;;
80910;SDS011;70359;51.420;7.032;2023-06-19T01:36:21;2.5;;;2.1;;
80910;SDS011;70359;51.420;7.032;2023-06-19T01:38:47;2.5;;;2.1;;
80910;SDS011;70359;51.420;7.032;2023-06-19T01:41:11;2.3;;;2.1;;
80910;SDS011;70359;51.420;7.032;2023-06-19T01:43:40;2.3;;;2.1;;
80910;SDS011;70359;51.420;7.032;2023-06-19T01:46:00;2;;;1.8;;
80910;SDS011;70359;51.420;7.032;2023-06-19T01:48:26;2;;;1.8;;
80910;SDS011;70359;51.420;7.032;2023-06-19T01:50:50;1.6;;;1.5;;
80910;SDS011;70359;51.420;7.032;2023-06-19T01:53:15;1.6;;;1.5;;
80910;SDS011;70359;51.420;7.032;2023-06-19T01:55:44;2;;;1.8;;
80910;SDS011;70359;51.420;7.032;2023-06-19T01:58:05;2;;;1.8;;
80910;SDS011;70359;51.420;7.032;2023-06-19T02:00:30;1.9;;;1.8;;
80910;SDS011;70359;51.420;7.032;2023-06-19T02:02:59;1.9;;;1.8;;
80910;SDS011;70359;51.420;7.032;2023-06-19T02:05:21;1.7;;;1.6;;
80910;SDS011;70359;51.420;7.032;2023-06-19T02:07:49;1.7;;;1.6;;
80910;SDS011;70359;51.420;7.032;2023-06-19T02:10:10;1.9;;;1.8;;
80910;SDS011;70359;51.420;7.032;2023-06-19T02:12:35;1.9;;;1.8;;
80910;SDS011;70359;51.420;7.032;2023-06-19T02:15:01;1.7;;;1.6;;
80910;SDS011;70359;51.420;7.032;2023-06-19T02:17:25;1.7;;;1.6;;
80910;SDS011;70359;51.420;7.032;2023-06-19T02:19:50;1.9;;;1.8;;
80910;SDS011;70359;51.420;7.032;2023-06-19T02:22:18;1.9;;;1.8;;
80910;SDS011;70359;51.420;7.032;2023-06-19T02:24:40;2.1;;;1.9;;
80910;SDS011;70359;51.420;7.032;2023-06-19T02:27:10;2.1;;;1.9;;
80910;SDS011;70359;51.420;7.032;2023-06-19T02:29:30;2.2;;;2;;
80910;SDS011;70359;51.420;7.032;2023-06-19T02:31:59;2.2;;;2;;
80910;SDS011;70359;51.420;7.032;2023-06-19T02:34:20;1.5;;;1.4;;
80910;SDS011;70359;51.420;7.032;2023-06-19T02:36:45;1.5;;;1.4;;
80910;SDS011;70359;51.420;7.032;2023-06-19T02:39:10;1.5;;;1.4;;
80910;SDS011;70359;51.420;7.032;2023-06-19T02:41:35;1.9;;;1.8;;
80910;SDS011;70359;51.420;7.032;2023-06-19T02:44:04;1.9;;;1.8;;
80910;SDS011;70359;51.420;7.032;2023-06-19T02:46:25;2.1;;;2;;
80910;SDS011;70359;51.420;7.032;2023-06-19T02:48:54;2.1;;;2;;
80910;SDS011;70359;51.420;7.032;2023-06-19T02:51:15;1.7;;;1.6;;
80910;SDS011;70359;51.420;7.032;2023-06-19T02:53:40;1.7;;;1.6;;
80910;SDS011;70359;51.420;7.032;2023-06-19T02:56:05;2.3;;;2.1;;
80910;SDS011;70359;51.420;7.032;2023-06-19T02:58:34;2.3;;;2.1;;
80910;SDS011;70359;51.420;7.032;2023-06-19T03:00:59;1.6;;;1.5;;
80910;SDS011;70359;51.420;7.032;2023-06-19T03:03:24;1.6;;;1.5;;
80910;SDS011;70359;51.420;7.032;2023-06-19T03:05:45;2.1;;;1.9;;
80910;SDS011;70359;51.420;7.032;2023-06-19T03:08:10;2.1;;;1.9;;
80910;SDS011;70359;51.420;7.032;2023-06-19T03:10:35;2.1;;;1.9;;
80910;SDS011;70359;51.420;7.032;2023-06-19T03:13:00;2.1;;;1.9;;
80910;SDS011;70359;51.420;7.032;2023-06-19T03:15:25;2.2;;;2;;
80910;SDS011;70359;51.420;7.032;2023-06-19T03:17:51;2.2;;;2;;
80910;SDS011;70359;51.420;7.032;2023-06-19T03:20:15;2.3;;;2.1;;
80910;SDS011;70359;51.420;7.032;2023-06-19T03:22:41;2.3;;;2.1;;
80910;SDS011;70359;51.420;7.032;2023-06-19T03:25:06;1.7;;;1.6;;
80910;SDS011;70359;51.420;7.032;2023-06-19T03:27:30;1.7;;;1.6;;
80910;SDS011;70359;51.420;7.032;2023-06-19T03:29:55;1.7;;;1.6;;
80910;SDS011;70359;51.420;7.032;2023-06-19T03:32:20;1.7;;;1.6;;
80910;SDS011;70359;51.420;7.032;2023-06-19T03:34:49;1.8;;;1.7;;
80910;SDS011;70359;51.420;7.032;2023-06-19T03:37:11;1.8;;;1.7;;
80910;SDS011;70359;51.420;7.032;2023-06-19T03:39:39;1.6;;;1.5;;
80910;SDS011;70359;51.420;7.032;2023-06-19T03:42:00;1.6;;;1.5;;
80910;SDS011;70359;51.420;7.032;2023-06-19T03:44:26;1.6;;;1.5;;
80910;SDS011;70359;51.420;7.032;2023-06-19T03:46:50;1.6;;;1.5;;
80910;SDS011;70359;51.420;7.032;2023-06-19T03:49:19;1.6;;;1.5;;
80910;SDS011;70359;51.420;7.032;2023-06-19T03:51:40;1.5;;;1.4;;
80910;SDS011;70359;51.420;7.032;2023-06-19T03:54:06;1.5;;;1.4;;
80910;SDS011;70359;51.420;7.032;2023-06-19T03:56:34;1.2;;;1.1;;
80910;SDS011;70359;51.420;7.032;2023-06-19T03:58:56;1.2;;;1.1;;
80910;SDS011;70359;51.420;7.032;2023-06-19T04:01:21;1.6;;;1.4;;
80910;SDS011;70359;51.420;7.032;2023-06-19T04:03:46;1.6;;;1.4;;
80910;SDS011;70359;51.420;7.032;2023-06-19T04:06:11;1.2;;;1.1;;
80910;SDS011;70359;51.420;7.032;2023-06-19T04:08:36;1.2;;;1.1;;
80910;SDS011;70359;51.420;7.032;2023-06-19T04:11:04;2.5;;;1.1;;
80910;SDS011;70359;51.420;7.032;2023-06-19T04:13:26;2.5;;;1.1;;
80910;SDS011;70359;51.420;7.032;2023-06-19T04:15:51;1.2;;;1.1;;
80910;SDS011;70359;51.420;7.032;2023-06-19T04:18:16;1.2;;;1.1;;
80910;SDS011;70359;51.420;7.032;2023-06-19T04:20:41;1.2;;;1.1;;
80910;SDS011;70359;51.420;7.032;2023-06-19T04:23:06;1.2;;;1.1;;
80910;SDS011;70359;51.420;7.032;2023-06-19T04:25:35;1.7;;;1.6;;
80910;SDS011;70359;51.420;7.032;2023-06-19T04:27:56;1.7;;;1.6;;
80910;SDS011;70359;51.420;7.032;2023-06-19T04:30:21;1.4;;;1.3;;
80910;SDS011;70359;51.420;7.032;2023-06-19T04:32:50;1.4;;;1.3;;
80910;SDS011;70359;51.420;7.032;2023-06-19T04:35:11;1.4;;;1.3;;
80910;SDS011;70359;51.420;7.032;2023-06-19T04:37:36;1.4;;;1.3;;
80910;SDS011;70359;51.420;7.032;2023-06-19T04:40:01;1.3;;;1.2;;
80910;SDS011;70359;51.420;7.032;2023-06-19T04:42:27;1.3;;;1.2;;
80910;SDS011;70359;51.420;7.032;2023-06-19T04:44:51;1.4;;;1.3;;
80910;SDS011;70359;51.420;7.032;2023-06-19T04:47:17;1.4;;;1.3;;
80910;SDS011;70359;51.420;7.032;2023-06-19T04:49:41;1.3;;;1.2;;
80910;SDS011;70359;51.420;7.032;2023-06-19T04:52:06;1.3;;;1.2;;
80910;SDS011;70359;51.420;7.032;2023-06-19T04:54:35;1.3;;;1.2;;
80910;SDS011;70359;51.420;7.032;2023-06-19T04:56:56;0.9;;;0.9;;
80910;SDS011;70359;51.420;7.032;2023-06-19T04:59:21;0.9;;;0.9;;
80910;SDS011;70359;51.420;7.032;2023-06-19T05:01:50;1.1;;;1;;
80910;SDS011;70359;51.420;7.032;2023-06-19T05:04:15;1.1;;;1;;
80910;SDS011;70359;51.420;7.032;2023-06-19T05:06:36;1.2;;;1.1;;
80910;SDS011;70359;51.420;7.032;2023-06-19T05:09:01;1.2;;;1.1;;
80910;SDS011;70359;51.420;7.032;2023-06-19T05:11:30;1.2;;;1.1;;
80910;SDS011;70359;51.420;7.032;2023-06-19T05:13:51;1.2;;;1.1;;
80910;SDS011;70359;51.420;7.032;2023-06-19T05:16:16;1.3;;;1.2;;
80910;SDS011;70359;51.420;7.032;2023-06-19T05:18:41;1.3;;;1.2;;
80910;SDS011;70359;51.420;7.032;2023-06-19T05:21:06;1.4;;;1.3;;
80910;SDS011;70359;51.420;7.032;2023-06-19T05:23:35;1.4;;;1.3;;
80910;SDS011;70359;51.420;7.032;2023-06-19T05:26:00;2;;;1.3;;
80910;SDS011;70359;51.420;7.032;2023-06-19T05:28:21;2;;;1.3;;
80910;SDS011;70359;51.420;7.032;2023-06-19T05:30:46;1.2;;;1.1;;
80910;SDS011;70359;51.420;7.032;2023-06-19T05:33:11;1.2;;;1.1;;
80910;SDS011;70359;51.420;7.032;2023-06-19T05:35:36;1.3;;;1.2;;
80910;SDS011;70359;51.420;7.032;2023-06-19T05:38:01;1.3;;;1.2;;
80910;SDS011;70359;51.420;7.032;2023-06-19T05:40:26;1.2;;;1.1;;
80910;SDS011;70359;51.420;7.032;2023-06-19T05:42:51;1.2;;;1.1;;
80910;SDS011;70359;51.420;7.032;2023-06-19T05:45:16;1.3;;;1.2;;
80910;SDS011;70359;51.420;7.032;2023-06-19T05:47:41;1.3;;;1.2;;
80910;SDS011;70359;51.420;7.032;2023-06-19T05:50:06;1.7;;;1.1;;
80910;SDS011;70359;51.420;7.032;2023-06-19T05:52:34;1.7;;;1.1;;
80910;SDS011;70359;51.420;7.032;2023-06-19T05:55:00;1.1;;;1;;
80910;SDS011;70359;51.420;7.032;2023-06-19T05:57:21;1.1;;;1;;
80910;SDS011;70359;51.420;7.032;2023-06-19T05:59:46;1.8;;;1.1;;
80910;SDS011;70359;51.420;7.032;2023-06-19T06:02:15;1.8;;;1.1;;
80910;SDS011;70359;51.420;7.032;2023-06-19T06:04:36;1.8;;;1.1;;
80910;SDS011;70359;51.420;7.032;2023-06-19T06:07:01;1.1;;;1;;
80910;SDS011;70359;51.420;7.032;2023-06-19T06:09:30;1.1;;;1;;
80910;SDS011;70359;51.420;7.032;2023-06-19T06:11:51;1.2;;;1.1;;
80910;SDS011;70359;51.420;7.032;2023-06-19T06:14:20;1.2;;;1.1;;
80910;SDS011;70359;51.420;7.032;2023-06-19T06:16:41;1.1;;;1;;
80910;SDS011;70359;51.420;7.032;2023-06-19T06:19:06;1.1;;;1;;
80910;SDS011;70359;51.420;7.032;2023-06-19T06:21:31;1.1;;;1;;
80910;SDS011;70359;51.420;7.032;2023-06-19T06:23:56;1.1;;;1;;
80910;SDS011;70359;51.420;7.032;2023-06-19T06:26:21;0.8;;;0.8;;
80910;SDS011;70359;51.420;7.032;2023-06-19T06:28:46;0.8;;;0.8;;
80910;SDS011;70359;51.420;7.032;2023-06-19T06:31:15;2.9;;;1.5;;
80910;SDS011;70359;51.420;7.032;2023-06-19T06:33:36;2.9;;;1.5;;
80910;SDS011;70359;51.420;7.032;2023-06-19T06:36:01;0.9;;;0.9;;
80910;SDS011;70359;51.420;7.032;2023-06-19T06:38:26;0.9;;;0.9;;
80910;SDS011;70359;51.420;7.032;2023-06-19T06:40:51;1.3;;;0.9;;
80910;SDS011;70359;51.420;7.032;2023-06-19T06:43:16;1.3;;;0.9;;
80910;SDS011;70359;51.420;7.032;2023-06-19T06:45:45;1.2;;;1.1;;
80910;SDS011;70359;51.420;7.032;2023-06-19T06:48:06;1.2;;;1.1;;
80910;SDS011;70359;51.420;7.032;2023-06-19T06:50:31;1;;;0.9;;
80910;SDS011;70359;51.420;7.032;2023-06-19T06:52:56;1;;;0.9;;
80910;SDS011;70359;51.420;7.032;2023-06-19T06:55:21;1;;;0.9;;
80910;SDS011;70359;51.420;7.032;2023-06-19T06:57:46;1;;;0.9;;
80910;SDS011;70359;51.420;7.032;2023-06-19T07:00:16;1.2;;;1.1;;
80910;SDS011;70359;51.420;7.032;2023-06-19T07:02:37;1.2;;;1.1;;
80910;SDS011;70359;51.420;7.032;2023-06-19T07:05:01;1.2;;;1;;
80910;SDS011;70359;51.420;7.032;2023-06-19T07:07:26;1.2;;;1;;
80910;SDS011;70359;51.420;7.032;2023-06-19T07:09:51;0.9;;;0.9;;
80910;SDS011;70359;51.420;7.032;2023-06-19T07:12:16;0.9;;;0.9;;
80910;SDS011;70359;51.420;7.032;2023-06-19T07:14:41;0.9;;;0.9;;
80910;SDS011;70359;51.420;7.032;2023-06-19T07:17:06;5.4;;;1.2;;
80910;SDS011;70359;51.420;7.032;2023-06-19T07:19:31;5.4;;;1.2;;
80910;SDS011;70359;51.420;7.032;2023-06-19T07:21:56;0.9;;;0.9;;
80910;SDS011;70359;51.420;7.032;2023-06-19T07:24:21;0.9;;;0.9;;
80910;SDS011;70359;51.420;7.032;2023-06-19T07:26:46;1.2;;;1.1;;
80910;SDS011;70359;51.420;7.032;2023-06-19T07:29:12;1.2;;;1.1;;
80910;SDS011;70359;51.420;7.032;2023-06-19T07:31:36;6.1;;;1.4;;
80910;SDS011;70359;51.420;7.032;2023-06-19T07:34:01;6.1;;;1.4;;
80910;SDS011;70359;51.420;7.032;2023-06-19T07:36:26;0.8;;;0.8;;
80910;SDS011;70359;51.420;7.032;2023-06-19T07:38:55;0.8;;;0.8;;
80910;SDS011;70359;51.420;7.032;2023-06-19T07:41:16;1;;;0.9;;
80910;SDS011;70359;51.420;7.032;2023-06-19T07:43:41;1;;;0.9;;
80910;SDS011;70359;51.420;7.032;2023-06-19T07:46:10;1;;;0.9;;
80910;SDS011;70359;51.420;7.032;2023-06-19T07:48:31;1;;;0.9;;
80910;SDS011;70359;51.420;7.032;2023-06-19T07:50:56;0.8;;;0.8;;
80910;SDS011;70359;51.420;7.032;2023-06-19T07:53:21;0.8;;;0.8;;
80910;SDS011;70359;51.420;7.032;2023-06-19T07:55:50;1.3;;;1.1;;
80910;SDS011;70359;51.420;7.032;2023-06-19T07:58:11;1.3;;;1.1;;
80910;SDS011;70359;51.420;7.032;2023-06-19T08:00:36;1.2;;;1.1;;
80910;SDS011;70359;51.420;7.032;2023-06-19T08:03:01;1.2;;;1.1;;
80910;SDS011;70359;51.420;7.032;2023-06-19T08:05:30;0.9;;;0.9;;
80910;SDS011;70359;51.420;7.032;2023-06-19T08:07:55;0.9;;;0.9;;
80910;SDS011;70359;51.420;7.032;2023-06-19T08:10:19;1.3;;;1.2;;
80910;SDS011;70359;51.420;7.032;2023-06-19T08:12:42;1.3;;;1.2;;
80910;SDS011;70359;51.420;7.032;2023-06-19T08:15:07;1.1;;;1;;
80910;SDS011;70359;51.420;7.032;2023-06-19T08:17:31;1.1;;;1;;
80910;SDS011;70359;51.420;7.032;2023-06-19T08:20:00;1.1;;;1;;
80910;SDS011;70359;51.420;7.032;2023-06-19T08:22:21;1.3;;;1.2;;
80910;SDS011;70359;51.420;7.032;2023-06-19T08:24:46;1.3;;;1.2;;
80910;SDS011;70359;51.420;7.032;2023-06-19T08:27:15;1.2;;;1.1;;
80910;SDS011;70359;51.420;7.032;2023-06-19T08:29:36;1.2;;;1.1;;
80910;SDS011;70359;51.420;7.032;2023-06-19T08:32:01;0.9;;;0.9;;
80910;SDS011;70359;51.420;7.032;2023-06-19T08:34:26;0.9;;;0.9;;
80910;SDS011;70359;51.420;7.032;2023-06-19T08:36:51;1.2;;;0.9;;
80910;SDS011;70359;51.420;7.032;2023-06-19T08:39:16;1.2;;;0.9;;
80910;SDS011;70359;51.420;7.032;2023-06-19T08:41:42;1;;;0.9;;
80910;SDS011;70359;51.420;7.032;2023-06-19T08:44:07;1;;;0.9;;
80910;SDS011;70359;51.420;7.032;2023-06-19T08:46:31;0.9;;;0.9;;
80910;SDS011;70359;51.420;7.032;2023-06-19T08:49:02;0.9;;;0.9;;
80910;SDS011;70359;51.420;7.032;2023-06-19T08:51:21;1.1;;;1;;
80910;SDS011;70359;51.420;7.032;2023-06-19T08:53:54;1.1;;;1;;
80910;SDS011;70359;51.420;7.032;2023-06-19T08:56:11;1.1;;;1;;
80910;SDS011;70359;51.420;7.032;2023-06-19T08:58:36;1.1;;;1;;
80910;SDS011;70359;51.420;7.032;2023-06-19T09:01:02;0.9;;;0.9;;
80910;SDS011;70359;51.420;7.032;2023-06-19T09:03:26;0.9;;;0.9;;
80910;SDS011;70359;51.420;7.032;2023-06-19T09:05:51;0.8;;;0.8;;
80910;SDS011;70359;51.420;7.032;2023-06-19T09:08:16;0.8;;;0.8;;
80910;SDS011;70359;51.420;7.032;2023-06-19T09:10:53;2;;;1.1;;
80910;SDS011;70359;51.420;7.032;2023-06-19T09:13:06;2;;;1.1;;
80910;SDS011;70359;51.420;7.032;2023-06-19T09:15:33;1.3;;;1.2;;
80910;SDS011;70359;51.420;7.032;2023-06-19T09:18:03;1.3;;;1.2;;
80910;SDS011;70359;51.420;7.032;2023-06-19T09:20:29;1.3;;;1.2;;
80910;SDS011;70359;51.420;7.032;2023-06-19T09:22:50;1.3;;;1.2;;
80910;SDS011;70359;51.420;7.032;2023-06-19T09:25:11;1.2;;;1.1;;
80910;SDS011;70359;51.420;7.032;2023-06-19T09:27:36;1.2;;;1.1;;
80910;SDS011;70359;51.420;7.032;2023-06-19T09:30:02;1.2;;;1.1;;
80910;SDS011;70359;51.420;7.032;2023-06-19T09:32:27;1;;;1;;
80910;SDS011;70359;51.420;7.032;2023-06-19T09:34:53;1;;;1;;
80910;SDS011;70359;51.420;7.032;2023-06-19T09:37:22;1.1;;;1;;
80910;SDS011;70359;51.420;7.032;2023-06-19T09:39:42;1.1;;;1;;
80910;SDS011;70359;51.420;7.032;2023-06-19T09:42:07;0.7;;;0.7;;
80910;SDS011;70359;51.420;7.032;2023-06-19T09:44:36;0.7;;;0.7;;
80910;SDS011;70359;51.420;7.032;2023-06-19T09:46:59;1.2;;;1.1;;
80910;SDS011;70359;51.420;7.032;2023-06-19T09:49:27;1.2;;;1.1;;
80910;SDS011;70359;51.420;7.032;2023-06-19T09:51:47;1.3;;;1.2;;
80910;SDS011;70359;51.420;7.032;2023-06-19T09:54:14;1.3;;;1.2;;
80910;SDS011;70359;51.420;7.032;2023-06-19T09:56:37;1.7;;;1.6;;
80910;SDS011;70359;51.420;7.032;2023-06-19T09:59:02;1.7;;;1.6;;
80910;SDS011;70359;51.420;7.032;2023-06-19T10:01:27;0.9;;;0.9;;
80910;SDS011;70359;51.420;7.032;2023-06-19T10:04:06;0.9;;;0.9;;
80910;SDS011;70359;51.420;7.032;2023-06-19T10:06:17;1.1;;;1;;
80910;SDS011;70359;51.420;7.032;2023-06-19T10:08:43;1.1;;;1;;
80910;SDS011;70359;51.420;7.032;2023-06-19T10:11:10;2;;;1.4;;
80910;SDS011;70359;51.420;7.032;2023-06-19T10:13:36;2;;;1.4;;
80910;SDS011;70359;51.420;7.032;2023-06-19T10:16:00;1.3;;;1.2;;
80910;SDS011;70359;51.420;7.032;2023-06-19T10:18:21;1.3;;;1.2;;
80910;SDS011;70359;51.420;7.032;2023-06-19T10:20:46;2.2;;;1.3;;
80910;SDS011;70359;51.420;7.032;2023-06-19T10:23:13;2.2;;;1.3;;
80910;SDS011;70359;51.420;7.032;2023-06-19T10:25:38;1.1;;;1;;
80910;SDS011;70359;51.420;7.032;2023-06-19T10:28:15;1.1;;;1;;
80910;SDS011;70359;51.420;7.032;2023-06-19T10:30:27;1.3;;;1.2;;
80910;SDS011;70359;51.420;7.032;2023-06-19T10:32:51;1.3;;;1.2;;
80910;SDS011;70359;51.420;7.032;2023-06-19T10:35:17;1.2;;;1.1;;
80910;SDS011;70359;51.420;7.032;2023-06-19T10:37:42;1.2;;;1.1;;
80910;SDS011;70359;51.420;7.032;2023-06-19T10:40:07;1.2;;;1.1;;
80910;SDS011;70359;51.420;7.032;2023-06-19T10:42:31;1.2;;;1.1;;
80910;SDS011;70359;51.420;7.032;2023-06-19T10:45:03;1.2;;;1.1;;
80910;SDS011;70359;51.420;7.032;2023-06-19T10:47:26;1.4;;;1.3;;
80910;SDS011;70359;51.420;7.032;2023-06-19T10:49:47;1.4;;;1.3;;
80910;SDS011;70359;51.420;7.032;2023-06-19T10:52:16;1.5;;;1.4;;
80910;SDS011;70359;51.420;7.032;2023-06-19T10:54:40;1.5;;;1.4;;
80910;SDS011;70359;51.420;7.032;2023-06-19T10:57:03;1;;;0.9;;
80910;SDS011;70359;51.420;7.032;2023-06-19T10:59:27;1;;;0.9;;
80910;SDS011;70359;51.420;7.032;2023-06-19T11:01:52;1.4;;;1.3;;
80910;SDS011;70359;51.420;7.032;2023-06-19T11:04:17;1.4;;;1.3;;
80910;SDS011;70359;51.420;7.032;2023-06-19T11:06:46;1.3;;;1.2;;
80910;SDS011;70359;51.420;7.032;2023-06-19T11:09:08;1.3;;;1.2;;
80910;SDS011;70359;51.420;7.032;2023-06-19T11:11:39;1.3;;;1.2;;
80910;SDS011;70359;51.420;7.032;2023-06-19T11:13:57;1.3;;;1.2;;
80910;SDS011;70359;51.420;7.032;2023-06-19T11:16:22;0.9;;;0.9;;
80910;SDS011;70359;51.420;7.032;2023-06-19T11:18:47;0.9;;;0.9;;
80910;SDS011;70359;51.420;7.032;2023-06-19T11:21:12;1.7;;;1.4;;
80910;SDS011;70359;51.420;7.032;2023-06-19T11:23:37;1.7;;;1.4;;
80910;SDS011;70359;51.420;7.032;2023-06-19T11:26:06;1.4;;;1.3;;
80910;SDS011;70359;51.420;7.032;2023-06-19T11:28:27;1.4;;;1.3;;
80910;SDS011;70359;51.420;7.032;2023-06-19T11:31:00;2.1;;;1.9;;
80910;SDS011;70359;51.420;7.032;2023-06-19T11:33:22;2.1;;;1.9;;
80910;SDS011;70359;51.420;7.032;2023-06-19T11:35:46;1.3;;;1.2;;
80910;SDS011;70359;51.420;7.032;2023-06-19T11:38:11;1.3;;;1.2;;
80910;SDS011;70359;51.420;7.032;2023-06-19T11:40:38;1.3;;;1.2;;
80910;SDS011;70359;51.420;7.032;2023-06-19T11:42:57;1.3;;;1.2;;
80910;SDS011;70359;51.420;7.032;2023-06-19T11:45:22;1.3;;;1.2;;
80910;SDS011;70359;51.420;7.032;2023-06-19T11:47:48;1.5;;;1.4;;
80910;SDS011;70359;51.420;7.032;2023-06-19T11:50:12;1.5;;;1.4;;
80910;SDS011;70359;51.420;7.032;2023-06-19T11:52:37;1.5;;;1.4;;
80910;SDS011;70359;51.420;7.032;2023-06-19T11:55:02;1.5;;;1.4;;
80910;SDS011;70359;51.420;7.032;2023-06-19T11:57:27;1.4;;;1.3;;
80910;SDS011;70359;51.420;7.032;2023-06-19T11:59:52;1.4;;;1.3;;
80910;SDS011;70359;51.420;7.032;2023-06-19T12:02:17;1.2;;;1.1;;
80910;SDS011;70359;51.420;7.032;2023-06-19T12:04:46;1.2;;;1.1;;
80910;SDS011;70359;51.420;7.032;2023-06-19T12:07:07;1.7;;;1.6;;
80910;SDS011;70359;51.420;7.032;2023-06-19T12:09:37;1.7;;;1.6;;
80910;SDS011;70359;51.420;7.032;2023-06-19T12:11:57;1.5;;;1.4;;
80910;SDS011;70359;51.420;7.032;2023-06-19T12:14:22;1.5;;;1.4;;
80910;SDS011;70359;51.420;7.032;2023-06-19T12:16:47;1.8;;;1.6;;
80910;SDS011;70359;51.420;7.032;2023-06-19T12:19:12;1.8;;;1.6;;
80910;SDS011;70359;51.420;7.032;2023-06-19T12:21:37;2.1;;;1.6;;
80910;SDS011;70359;51.420;7.032;2023-06-19T12:24:02;2.1;;;1.6;;
80910;SDS011;70359;51.420;7.032;2023-06-19T12:26:27;1.5;;;1.4;;
80910;SDS011;70359;51.420;7.032;2023-06-19T12:28:52;1.5;;;1.4;;
80910;SDS011;70359;51.420;7.032;2023-06-19T12:31:17;1.8;;;1.7;;
80910;SDS011;70359;51.420;7.032;2023-06-19T12:36:42;1.4;;;1.3;;
80910;SDS011;70359;51.420;7.032;2023-06-19T12:42:10;2.1;;;1.9;;
80910;SDS011;70359;51.420;7.032;2023-06-19T12:44:35;2.1;;;1.9;;
80910;SDS011;70359;51.420;7.032;2023-06-19T12:47:00;2.2;;;1.8;;
80910;SDS011;70359;51.420;7.032;2023-06-19T12:49:25;2.2;;;1.8;;
80910;SDS011;70359;51.420;7.032;2023-06-19T12:51:50;3.8;;;2.2;;
80910;SDS011;70359;51.420;7.032;2023-06-19T12:54:15;3.8;;;2.2;;
80910;SDS011;70359;51.420;7.032;2023-06-19T12:56:40;1.9;;;1.7;;
80910;SDS011;70359;51.420;7.032;2023-06-19T12:59:05;1.9;;;1.7;;
80910;SDS011;70359;51.420;7.032;2023-06-19T13:01:30;1.6;;;1.5;;
80910;SDS011;70359;51.420;7.032;2023-06-19T13:03:55;1.6;;;1.5;;
80910;SDS011;70359;51.420;7.032;2023-06-19T13:06:20;2.3;;;1.4;;
80910;SDS011;70359;51.420;7.032;2023-06-19T13:08:45;2.3;;;1.4;;
80910;SDS011;70359;51.420;7.032;2023-06-19T13:11:14;2.2;;;2;;
80910;SDS011;70359;51.420;7.032;2023-06-19T13:13:35;2.2;;;2;;
80910;SDS011;70359;51.420;7.032;2023-06-19T13:16:00;1.6;;;1.5;;
80910;SDS011;70359;51.420;7.032;2023-06-19T13:18:25;1.6;;;1.5;;
80910;SDS011;70359;51.420;7.032;2023-06-19T13:20:50;3.4;;;1.7;;
80910;SDS011;70359;51.420;7.032;2023-06-19T13:23:15;3.4;;;1.7;;
80910;SDS011;70359;51.420;7.032;2023-06-19T13:25:41;3.2;;;1.7;;
80910;SDS011;70359;51.420;7.032;2023-06-19T13:28:05;3.2;;;1.7;;
80910;SDS011;70359;51.420;7.032;2023-06-19T13:30:34;3.2;;;1.7;;
80910;SDS011;70359;51.420;7.032;2023-06-19T13:32:55;1.9;;;1.8;;
80910;SDS011;70359;51.420;7.032;2023-06-19T13:35:20;1.9;;;1.8;;
80910;SDS011;70359;51.420;7.032;2023-06-19T13:37:45;1.6;;;1.5;;
80910;SDS011;70359;51.420;7.032;2023-06-19T13:40:11;1.6;;;1.5;;
80910;SDS011;70359;51.420;7.032;2023-06-19T13:42:35;2.9;;;2;;
80910;SDS011;70359;51.420;7.032;2023-06-19T13:45:01;2.9;;;2;;
80910;SDS011;70359;51.420;7.032;2023-06-19T13:47:25;2.2;;;2;;
80910;SDS011;70359;51.420;7.032;2023-06-19T13:49:50;2.2;;;2;;
80910;SDS011;70359;51.420;7.032;2023-06-19T13:52:15;2.2;;;1.9;;
80910;SDS011;70359;51.420;7.032;2023-06-19T13:54:44;2.2;;;1.9;;
80910;SDS011;70359;51.420;7.032;2023-06-19T13:57:06;1.8;;;1.7;;
80910;SDS011;70359;51.420;7.032;2023-06-19T13:59:30;1.8;;;1.7;;
80910;SDS011;70359;51.420;7.032;2023-06-19T14:01:55;1.9;;;1.7;;
80910;SDS011;70359;51.420;7.032;2023-06-19T14:04:24;1.9;;;1.7;;
80910;SDS011;70359;51.420;7.032;2023-06-19T14:06:45;1.6;;;1.5;;
80910;SDS011;70359;51.420;7.032;2023-06-19T14:09:11;1.6;;;1.5;;
80910;SDS011;70359;51.420;7.032;2023-06-19T14:11:35;3.3;;;1.7;;
80910;SDS011;70359;51.420;7.032;2023-06-19T14:14:00;3.3;;;1.7;;
80910;SDS011;70359;51.420;7.032;2023-06-19T14:16:25;1.6;;;1.5;;
80910;SDS011;70359;51.420;7.032;2023-06-19T14:18:50;1.6;;;1.5;;
80910;SDS011;70359;51.420;7.032;2023-06-19T14:21:15;1.9;;;1.8;;
80910;SDS011;70359;51.420;7.032;2023-06-19T14:23:40;1.9;;;1.8;;
80910;SDS011;70359;51.420;7.032;2023-06-19T14:26:05;1.5;;;1.4;;
80910;SDS011;70359;51.420;7.032;2023-06-19T14:28:30;1.5;;;1.4;;
80910;SDS011;70359;51.420;7.032;2023-06-19T14:30:55;4.2;;;2.1;;
80910;SDS011;70359;51.420;7.032;2023-06-19T14:33:20;4.2;;;2.1;;
80910;SDS011;70359;51.420;7.032;2023-06-19T14:35:45;4.2;;;2.1;;
80910;SDS011;70359;51.420;7.032;2023-06-19T14:38:10;1.5;;;1.4;;
80910;SDS011;70359;51.420;7.032;2023-06-19T14:40:35;1.5;;;1.4;;
80910;SDS011;70359;51.420;7.032;2023-06-19T14:43:00;1.6;;;1.5;;
80910;SDS011;70359;51.420;7.032;2023-06-19T14:45:25;1.6;;;1.5;;
80910;SDS011;70359;51.420;7.032;2023-06-19T14:47:50;1.8;;;1.7;;
80910;SDS011;70359;51.420;7.032;2023-06-19T14:50:15;1.8;;;1.7;;
80910;SDS011;70359;51.420;7.032;2023-06-19T14:52:44;1.6;;;1.5;;
80910;SDS011;70359;51.420;7.032;2023-06-19T14:55:06;1.6;;;1.5;;
80910;SDS011;70359;51.420;7.032;2023-06-19T14:57:35;2;;;1.4;;
80910;SDS011;70359;51.420;7.032;2023-06-19T14:59:55;2;;;1.4;;
80910;SDS011;70359;51.420;7.032;2023-06-19T15:02:20;1.7;;;1.6;;
80910;SDS011;70359;51.420;7.032;2023-06-19T15:04:45;1.7;;;1.6;;
80910;SDS011;70359;51.420;7.032;2023-06-19T15:07:10;1.7;;;1.6;;
80910;SDS011;70359;51.420;7.032;2023-06-19T15:09:39;1.7;;;1.6;;
80910;SDS011;70359;51.420;7.032;2023-06-19T15:12:00;1.9;;;1.4;;
80910;SDS011;70359;51.420;7.032;2023-06-19T15:14:26;1.9;;;1.4;;